createdAt,value
2018-02-23T00:01:54.136Z,22.70
2018-02-23T00:04:21.978Z,20.90
2018-02-23T00:06:50.074Z,21.77
2018-02-23T00:09:18.842Z,23.77
2018-02-23T00:11:47.398Z,20.90
2018-02-23T00:14:15.937Z,23.80
2018-02-23T00:16:43.767Z,22.63
2018-02-23T00:19:11.471Z,21.20
2018-02-23T00:21:39.256Z,21.97
2018-02-23T00:24:07.023Z,20.70
2018-02-23T00:26:34.794Z,20.90
2018-02-23T00:29:03.335Z,23.80
2018-02-23T00:31:31.052Z,22.30
2018-02-23T00:33:58.786Z,21.80
2018-02-23T00:36:28.125Z,22.40
2018-02-23T00:38:55.807Z,22.23
2018-02-23T00:41:24.346Z,22.57
2018-02-23T00:43:52.056Z,21.63
2018-02-23T00:46:19.845Z,21.63
2018-02-23T00:48:47.796Z,20.30
2018-02-23T00:51:15.562Z,21.53
2018-02-23T00:53:44.055Z,22.83
2018-02-23T00:56:11.763Z,22.00
2018-02-23T00:58:39.504Z,19.77
2018-02-23T01:01:07.294Z,22.83
2018-02-23T01:03:35.855Z,21.90
2018-02-23T01:06:03.640Z,19.90
2018-02-23T01:08:31.451Z,20.30
2018-02-23T01:10:59.182Z,20.00
2018-02-23T01:13:26.895Z,20.50
2018-02-23T01:15:56.412Z,20.03
2018-02-23T01:18:30.661Z,20.03
2018-02-23T01:20:58.388Z,22.27
2018-02-23T01:23:26.356Z,21.07
2018-02-23T01:25:56.698Z,21.03
2018-02-23T01:28:27.169Z,20.80
2018-02-23T01:30:59.141Z,21.63
2018-02-23T01:33:28.831Z,22.10
2018-02-23T01:35:57.763Z,21.60
2018-02-23T01:38:34.142Z,22.63
2018-02-23T01:41:04.957Z,19.77
2018-02-23T01:43:50.678Z,19.90
2018-02-23T01:46:22.141Z,20.30
2018-02-23T01:48:50.710Z,22.17
2018-02-23T01:51:22.013Z,17.87
2018-02-23T01:53:53.938Z,19.23
2018-02-23T01:56:22.992Z,18.90
2018-02-23T01:58:56.590Z,18.53
2018-02-23T02:01:31.417Z,19.43
2018-02-23T02:04:02.027Z,20.00
2018-02-23T02:06:43.198Z,18.70
2018-02-23T02:13:27.925Z,18.70
2018-02-23T02:16:08.187Z,18.93
2018-02-23T02:18:53.735Z,20.93
2018-02-23T02:24:41.575Z,18.50
2018-02-23T02:27:13.791Z,19.10
2018-02-23T05:14:07.991Z,19.60
2018-02-23T05:33:30.828Z,14.77
2018-02-23T05:59:59.562Z,16.03
2018-02-23T06:10:07.154Z,16.33
2018-02-23T06:12:46.600Z,15.70
2018-02-23T06:31:54.364Z,15.77
2018-02-23T07:45:07.352Z,20.33
2018-02-23T07:51:15.257Z,24.13
2018-02-23T07:57:22.341Z,25.37
2018-02-23T08:12:12.407Z,23.50
2018-02-23T08:22:44.555Z,19.17
2018-02-23T08:25:24.121Z,17.03
2018-02-23T08:27:56.631Z,18.97
2018-02-23T08:31:06.126Z,20.13
2018-02-23T08:33:45.070Z,24.97
2018-02-23T08:36:15.966Z,26.17
2018-02-23T08:38:44.194Z,25.60
2018-02-23T08:41:16.898Z,23.20
2018-02-23T08:43:46.160Z,21.63
2018-02-23T08:46:17.701Z,24.70
2018-02-23T08:48:47.252Z,22.10
2018-02-23T08:51:16.341Z,25.27
2018-02-23T08:53:45.673Z,25.37
2018-02-23T08:56:13.693Z,24.60
2018-02-23T08:58:42.743Z,26.07
2018-02-23T09:01:11.221Z,25.10
2018-02-23T09:03:39.505Z,24.80
2018-02-23T09:06:08.418Z,24.40
2018-02-23T09:08:37.320Z,24.67
2018-02-23T09:11:05.559Z,25.20
2018-02-23T09:13:34.140Z,25.43
2018-02-23T09:16:03.035Z,25.50
2018-02-23T09:18:31.108Z,25.57
2018-02-23T09:21:00.590Z,25.00
2018-02-23T09:23:29.601Z,26.83
2018-02-23T09:25:58.037Z,26.97
2018-02-23T09:28:25.762Z,25.10
2018-02-23T09:30:53.536Z,24.37
2018-02-23T09:33:21.449Z,25.10
2018-02-23T09:35:50.062Z,23.00
2018-02-23T09:38:19.161Z,26.70
2018-02-23T09:40:47.044Z,26.57
2018-02-23T09:43:15.198Z,24.80
2018-02-23T09:45:43.278Z,26.93
2018-02-23T09:48:12.367Z,25.83
2018-02-23T09:50:40.652Z,20.97
2018-02-23T09:53:09.547Z,21.50
2018-02-23T09:55:37.556Z,25.17
2018-02-23T09:58:06.090Z,23.23
2018-02-23T10:00:34.767Z,23.20
2018-02-23T10:03:02.764Z,22.30
2018-02-23T10:05:31.401Z,22.57
2018-02-23T10:07:59.590Z,23.17
2018-02-23T10:10:28.396Z,23.53
2018-02-23T10:12:56.342Z,20.47
2018-02-23T10:15:24.363Z,21.43
2018-02-23T10:17:52.262Z,18.50
2018-02-23T10:20:20.077Z,19.27
2018-02-23T10:22:47.780Z,17.57
2018-02-23T10:25:15.662Z,17.67
2018-02-23T10:27:43.848Z,17.07
2018-02-23T10:30:11.945Z,16.87
2018-02-23T10:32:40.335Z,13.67
2018-02-23T10:35:08.280Z,15.07
2018-02-23T10:37:36.878Z,14.27
2018-02-23T10:40:05.759Z,14.40
2018-02-23T10:42:33.844Z,14.23
2018-02-23T10:45:01.993Z,13.20
2018-02-23T10:47:29.861Z,15.60
2018-02-23T10:49:57.730Z,13.63
2018-02-23T10:52:25.893Z,12.33
2018-02-23T10:54:54.611Z,12.43
2018-02-23T10:57:23.007Z,13.90
2018-02-23T10:59:51.981Z,14.53
2018-02-23T11:02:19.952Z,11.83
2018-02-23T11:04:48.053Z,10.33
2018-02-23T11:07:16.202Z,12.23
2018-02-23T11:09:44.096Z,12.20
2018-02-23T11:12:13.471Z,13.50
2018-02-23T11:14:41.603Z,12.07
2018-02-23T11:17:09.791Z,10.77
2018-02-23T11:19:37.786Z,13.77
2018-02-23T11:22:05.652Z,11.13
2018-02-23T11:24:33.543Z,9.70
2018-02-23T11:27:02.083Z,10.40
2018-02-23T11:29:29.827Z,10.17
2018-02-23T11:31:58.914Z,9.30
2018-02-23T11:34:26.935Z,9.77
2018-02-23T11:36:54.926Z,10.37
2018-02-23T11:39:23.545Z,10.57
2018-02-23T11:41:51.558Z,8.50
2018-02-23T11:44:20.850Z,8.80
2018-02-23T11:46:48.636Z,10.20
2018-02-23T11:49:16.700Z,9.53
2018-02-23T11:51:44.626Z,9.00
2018-02-23T11:54:12.819Z,9.30
2018-02-23T11:56:41.630Z,8.70
2018-02-23T11:59:09.577Z,9.80
2018-02-23T12:01:37.750Z,7.90
2018-02-23T12:04:08.660Z,9.90
2018-02-23T12:06:36.989Z,10.57
2018-02-23T12:09:05.273Z,9.20
2018-02-23T12:11:33.338Z,9.70
2018-02-23T12:14:01.310Z,8.97
2018-02-23T12:16:29.278Z,9.55
2018-02-23T12:18:57.346Z,9.43
2018-02-23T12:21:25.357Z,10.00
2018-02-23T12:23:53.547Z,10.90
2018-02-23T12:26:21.401Z,12.37
2018-02-23T12:28:49.332Z,10.03
2018-02-23T12:31:17.087Z,10.00
2018-02-23T12:33:44.974Z,10.93
2018-02-23T12:36:13.187Z,11.73
2018-02-23T12:38:40.954Z,10.97
2018-02-23T12:41:08.773Z,9.13
2018-02-23T12:43:36.613Z,11.27
2018-02-23T12:46:04.478Z,9.63
2018-02-23T12:48:32.262Z,10.80
2018-02-23T12:50:59.963Z,9.80
2018-02-23T12:53:27.721Z,8.40
2018-02-23T12:55:55.422Z,8.13
2018-02-23T12:58:23.162Z,6.20
2018-02-23T13:00:50.995Z,7.87
2018-02-23T13:03:18.782Z,7.20
2018-02-23T13:05:46.946Z,7.07
2018-02-23T13:08:14.839Z,6.43
2018-02-23T13:10:42.793Z,6.47
2018-02-23T13:13:10.985Z,6.83
2018-02-23T13:15:39.058Z,7.57
2018-02-23T13:18:06.775Z,7.40
2018-02-23T13:20:34.560Z,6.90
2018-02-23T13:23:02.356Z,8.90
2018-02-23T13:25:30.170Z,5.90
2018-02-23T13:28:03.340Z,6.07
2018-02-23T13:30:31.935Z,5.70
2018-02-23T13:32:59.954Z,6.10
2018-02-23T13:35:28.877Z,6.67
2018-02-23T13:37:56.774Z,7.40
2018-02-23T13:40:24.683Z,7.03
2018-02-23T13:42:52.719Z,6.97
2018-02-23T13:45:20.832Z,7.20
2018-02-23T13:47:49.062Z,5.97
2018-02-23T13:50:17.804Z,8.27
2018-02-23T13:52:45.928Z,7.60
2018-02-23T13:55:14.006Z,8.70
2018-02-23T13:57:42.069Z,8.90
2018-02-23T14:00:10.862Z,8.10
2018-02-23T14:02:39.882Z,8.10
2018-02-23T14:05:07.778Z,7.53
2018-02-23T14:07:35.788Z,7.60
2018-02-23T14:10:04.433Z,7.60
2018-02-23T14:12:32.524Z,5.87
2018-02-23T14:15:00.454Z,6.90
2018-02-23T14:17:28.527Z,6.97
2018-02-23T14:19:56.905Z,7.00
2018-02-23T14:22:24.952Z,8.40
2018-02-23T14:24:53.053Z,7.13
2018-02-23T14:27:21.540Z,6.17
2018-02-23T14:29:49.563Z,7.73
2018-02-23T14:32:17.591Z,7.10
2018-02-23T14:34:45.444Z,7.90
2018-02-23T14:37:13.779Z,6.50
2018-02-23T14:39:41.790Z,6.70
2018-02-23T14:42:09.781Z,7.00
2018-02-23T14:44:38.100Z,7.20
2018-02-23T14:47:06.130Z,5.87
2018-02-23T14:49:34.249Z,5.13
2018-02-23T14:52:02.427Z,5.30
2018-02-23T14:54:30.838Z,7.17
2018-02-23T14:56:59.220Z,6.87
2018-02-23T14:59:27.202Z,6.80
2018-02-23T15:01:56.034Z,8.37
2018-02-23T15:04:24.029Z,9.20
2018-02-23T15:06:52.791Z,10.40
2018-02-23T15:09:20.741Z,9.63
2018-02-23T15:11:49.754Z,9.53
2018-02-23T15:14:17.664Z,11.03
2018-02-23T15:16:45.637Z,9.70
2018-02-23T15:19:14.511Z,11.10
2018-02-23T15:21:42.661Z,10.10
2018-02-23T15:24:10.782Z,13.60
2018-02-23T15:26:38.649Z,10.77
2018-02-23T15:29:06.756Z,9.80
2018-02-23T15:31:46.596Z,11.57
2018-02-23T15:34:14.630Z,10.10
2018-02-23T15:36:42.576Z,10.60
2018-02-23T15:39:10.373Z,9.20
2018-02-23T15:41:38.491Z,9.57
2018-02-23T15:44:07.306Z,9.20
2018-02-23T15:46:35.349Z,9.83
2018-02-23T15:49:08.967Z,10.53
2018-02-23T15:51:52.653Z,11.10
2018-02-23T15:54:20.674Z,9.80
2018-02-23T15:56:48.779Z,12.37
2018-02-23T15:59:17.254Z,11.67
2018-02-23T16:01:45.312Z,10.77
2018-02-23T16:04:13.442Z,12.70
2018-02-23T16:06:41.707Z,10.93
2018-02-23T16:09:09.842Z,11.20
2018-02-23T16:11:38.238Z,12.23
2018-02-23T16:14:07.026Z,13.07
2018-02-23T16:16:36.077Z,12.53
2018-02-23T16:19:04.248Z,15.27
2018-02-23T16:21:32.529Z,14.33
2018-02-23T16:24:01.322Z,13.73
2018-02-23T16:26:29.322Z,14.10
2018-02-23T16:28:57.397Z,13.13
2018-02-23T16:31:25.181Z,13.50
2018-02-23T16:33:52.952Z,16.27
2018-02-23T16:36:20.689Z,16.70
2018-02-23T16:38:48.543Z,13.97
2018-02-23T16:41:16.492Z,12.97
2018-02-23T16:43:44.209Z,15.40
2018-02-23T16:46:12.054Z,13.43
2018-02-23T16:48:39.886Z,14.27
2018-02-23T16:51:07.595Z,15.33
2018-02-23T16:53:35.357Z,15.23
2018-02-23T16:56:03.077Z,15.57
2018-02-23T16:58:30.852Z,13.77
2018-02-23T17:00:58.810Z,14.17
2018-02-23T17:03:26.889Z,16.20
2018-02-23T17:05:54.588Z,17.03
2018-02-23T17:08:22.386Z,16.50
2018-02-23T17:10:50.130Z,18.90
2018-02-23T17:13:17.940Z,16.53
2018-02-23T17:15:45.766Z,16.80
2018-02-23T17:18:13.581Z,17.10
2018-02-23T17:20:41.353Z,15.33
2018-02-23T17:23:09.345Z,16.77
2018-02-23T17:25:37.424Z,17.27
2018-02-23T17:28:05.164Z,17.90
2018-02-23T17:30:32.873Z,19.57
2018-02-23T17:33:00.845Z,17.70
2018-02-23T17:35:28.790Z,17.33
2018-02-23T17:37:56.656Z,23.03
2018-02-23T17:40:24.392Z,19.87
2018-02-23T17:42:52.164Z,19.43
2018-02-23T17:45:19.887Z,17.50
2018-02-23T17:47:47.619Z,18.63
2018-02-23T17:50:15.446Z,22.60
2018-02-23T17:52:43.168Z,24.30
2018-02-23T17:55:11.929Z,21.70
2018-02-23T17:57:39.796Z,21.50
2018-02-23T18:00:07.553Z,21.10
2018-02-23T18:02:35.337Z,19.40
2018-02-23T18:05:03.257Z,22.07
2018-02-23T18:07:31.889Z,20.03
2018-02-23T18:09:59.854Z,19.27
2018-02-23T18:12:27.614Z,20.00
2018-02-23T18:14:55.397Z,19.50
2018-02-23T18:17:23.197Z,24.03
2018-02-23T18:19:50.979Z,22.73
2018-02-23T18:22:18.738Z,22.17
2018-02-23T18:24:46.483Z,20.33
2018-02-23T18:27:14.273Z,19.07
2018-02-23T18:29:42.042Z,17.27
2018-02-23T18:32:09.821Z,17.90
2018-02-23T18:34:37.581Z,19.50
2018-02-23T18:37:05.596Z,18.87
2018-02-23T18:39:33.691Z,20.77
2018-02-23T18:42:01.643Z,30.70
2018-02-23T18:44:30.426Z,19.60
2018-02-23T18:46:58.988Z,22.80
2018-02-23T18:49:27.377Z,20.57
2018-02-23T18:51:55.250Z,18.90
2018-02-23T18:54:24.180Z,17.97
2018-02-23T18:56:54.530Z,15.70
2018-02-23T18:59:22.301Z,15.23
2018-02-23T19:01:50.056Z,15.70
2018-02-23T19:04:19.303Z,16.13
2018-02-23T19:06:47.109Z,13.37
2018-02-23T19:09:15.152Z,15.87
2018-02-23T19:11:42.939Z,15.87
2018-02-23T19:14:10.933Z,14.30
2018-02-23T19:16:38.912Z,14.23
2018-02-23T19:19:06.668Z,16.33
2018-02-23T19:21:34.509Z,19.23
2018-02-23T19:24:02.682Z,19.40
2018-02-23T19:26:30.500Z,21.97
2018-02-23T19:28:58.336Z,23.07
2018-02-23T19:31:26.593Z,23.93
2018-02-23T19:33:55.645Z,23.97
2018-02-23T19:36:23.758Z,22.17
2018-02-23T19:38:51.894Z,21.23
2018-02-23T19:41:22.132Z,22.23
2018-02-23T19:43:50.807Z,21.27
2018-02-23T19:46:22.846Z,20.43
2018-02-23T19:48:52.319Z,18.90
2018-02-23T19:51:20.331Z,21.57
2018-02-23T19:53:49.339Z,20.10
2018-02-23T19:56:18.166Z,19.60
2018-02-23T19:58:47.066Z,18.53
2018-02-23T20:01:14.922Z,18.53
2018-02-23T20:03:42.824Z,17.40
2018-02-23T20:06:13.752Z,17.57
2018-02-23T20:08:42.747Z,18.07
2018-02-23T20:11:11.515Z,19.27
2018-02-23T20:13:40.052Z,18.13
2018-02-23T20:16:10.960Z,19.43
2018-02-23T20:18:40.259Z,21.50
2018-02-23T20:21:08.981Z,20.50
2018-02-23T20:23:37.827Z,22.00
2018-02-23T20:26:05.718Z,22.00
2018-02-23T20:28:34.287Z,22.00
2018-02-23T20:31:04.281Z,20.00
2018-02-23T20:33:32.286Z,18.97
2018-02-23T20:36:00.252Z,19.87
2018-02-23T20:38:29.737Z,23.80
2018-02-23T20:40:57.816Z,25.07
2018-02-23T20:43:26.162Z,24.37
2018-02-23T20:45:54.224Z,22.30
2018-02-23T20:48:22.419Z,23.13
2018-02-23T20:50:50.810Z,22.67
2018-02-23T20:53:18.624Z,23.60
2018-02-23T20:55:46.391Z,22.40
2018-02-23T20:58:14.172Z,24.83
2018-02-23T21:00:41.929Z,22.20
2018-02-23T21:03:10.565Z,20.40
2018-02-23T21:05:38.323Z,21.90
2018-02-23T21:08:06.123Z,23.90
2018-02-23T21:10:33.893Z,23.50
2018-02-23T21:13:01.611Z,24.53
2018-02-23T21:15:29.414Z,22.83
2018-02-23T21:17:57.389Z,22.73
2018-02-23T21:20:25.783Z,23.33
2018-02-23T21:22:53.544Z,22.80
2018-02-23T21:25:21.330Z,32.90
2018-02-23T21:27:49.140Z,24.03
2018-02-23T21:30:16.829Z,24.77
2018-02-23T21:32:44.590Z,27.70
2018-02-23T21:35:13.000Z,26.53
2018-02-23T21:37:40.692Z,25.37
2018-02-23T21:40:08.639Z,25.87
2018-02-23T21:42:36.406Z,24.30
2018-02-23T21:45:04.244Z,26.13
2018-02-23T21:47:32.032Z,23.00
2018-02-23T21:50:01.098Z,24.27
2018-02-23T21:52:28.843Z,25.67
2018-02-23T21:54:56.604Z,25.07
2018-02-23T21:57:24.370Z,24.37
2018-02-23T21:59:52.103Z,22.40
2018-02-23T22:02:19.872Z,25.87
2018-02-23T22:04:47.678Z,24.90
2018-02-23T22:07:15.432Z,27.20
2018-02-23T22:09:43.162Z,24.20
2018-02-23T22:12:10.876Z,24.07
2018-02-23T22:14:39.440Z,23.47
2018-02-23T22:17:07.173Z,23.77
2018-02-23T22:19:34.844Z,26.23
2018-02-23T22:22:02.626Z,27.47
2018-02-23T22:24:31.548Z,22.77
2018-02-23T22:26:59.272Z,27.63
2018-02-23T22:29:27.148Z,25.27
2018-02-23T22:31:54.924Z,26.47
2018-02-23T22:34:23.326Z,24.67
2018-02-23T22:36:51.107Z,27.13
2018-02-23T22:39:18.936Z,24.27
2018-02-23T22:41:46.632Z,24.20
2018-02-23T22:44:14.668Z,24.30
2018-02-23T22:46:42.923Z,23.70
2018-02-23T22:49:10.698Z,24.50
2018-02-23T22:51:38.488Z,27.90
2018-02-23T22:54:06.192Z,24.67
2018-02-23T22:56:33.968Z,25.83
2018-02-23T22:59:01.674Z,25.97
2018-02-23T23:01:29.480Z,27.30
2018-02-23T23:03:57.182Z,26.87
2018-02-23T23:06:24.941Z,23.93
2018-02-23T23:08:52.695Z,26.10
2018-02-23T23:11:20.474Z,27.17
2018-02-23T23:13:48.251Z,24.00
2018-02-23T23:16:16.012Z,27.53
2018-02-23T23:18:43.728Z,26.50
2018-02-23T23:21:11.512Z,24.77
2018-02-23T23:23:39.263Z,28.17
2018-02-23T23:26:06.965Z,26.90
2018-02-23T23:28:36.712Z,26.30
2018-02-23T23:31:04.414Z,24.90
2018-02-23T23:33:32.211Z,27.60
2018-02-23T23:35:59.959Z,28.97
2018-02-23T23:38:27.723Z,23.47
2018-02-23T23:40:55.469Z,24.43
2018-02-23T23:43:23.317Z,22.23
2018-02-23T23:45:51.073Z,27.67
2018-02-23T23:48:18.770Z,27.07
2018-02-23T23:50:46.627Z,24.67
2018-02-23T23:53:14.356Z,25.40
2018-02-23T23:55:42.108Z,27.27
2018-02-23T23:58:09.835Z,23.87
